Stoufferstown, Pennsylvania
Current Conditions -  °F | °C
As of 12:53 PM on Friday 28 Nov 2014 (Local Time) from KHGR Reporting Station
Overcast Overcast  
Wind Chill: 23°   Ceiling: 3900
Heat Index: 33°   Visibility: 10mi
Dew Point: 19°   Wind: 14mph
Humidity: 56%   Direction: 320°NW
Pressure: 30.25"   Gusts: NA
Location:  39.9438°N, 77.6827°W
Report Text: KHGR 281753Z 32012KT 10SM OVC039 01/M07 A3025 RMK AO2 PK WND 29027/1741 SLP263 60000 T00061072 10017 21011 58011
Loading
Personal Weather Stations






























Interactive Weather Map New forecast layout! Learn more

10-Day Weather Forecast

Advertisements
Track Severe Weather on mobile